Accueil
METAR-TAF:

METAR-TAF

Aéroports :

Ruby, Alaska, États-Unis

latitude: 64-43-38N, longitude: 155-28-12W, altitude: 201 m

Observation

Le bulletin a été fait il y a 1 heure et 3 minutes, à 12:56 UTC
Vent 8 kt de est/nord-est
Température -26°C
Humidité 69%
Pression 1016 hPa
Visibilité: 16.1 km
Ciel clair

METAR: PARY 291256Z AUTO 07008KT 10SM CLR M26/M30 A3001 RMK AO2 SLP190 T12611300 FZRANO

Heure: 04:59 (13:59 UTC)


TAF: absent

Observations et prévisions météorologiques de plus de 4000 aéroports (messages METAR et TAF).

Les stations disponibles sont représentées par des disques jaunes et rouges sur la carte.

Passer la souris dessus pour voir le nom de la station.

Cliquer dessus pour voir les observations et prévisions météorologiques.

Pour changer de carte: cliquez sur les boutons verts avec une croix noire pour zoomer, sur le bouton vert avec un tiret pour effectuer un zoom arrière, ou sur les flèches vertes pour les cartes adjacentes.


METAR-TAF: